sensor_id;sensor_type;location;lat;lon;timestamp;temperature;humidity
63047;DHT22;62025;39.238;9.126;2023-04-15T00:01:41;16.30;59.30
63047;DHT22;62025;39.238;9.126;2023-04-15T00:04:07;16.20;59.90
63047;DHT22;62025;39.238;9.126;2023-04-15T00:06:35;16.20;59.70
63047;DHT22;62025;39.238;9.126;2023-04-15T00:09:01;16.20;59.80
63047;DHT22;62025;39.238;9.126;2023-04-15T00:11:28;16.20;60.10
63047;DHT22;62025;39.238;9.126;2023-04-15T00:13:54;16.20;60.30
63047;DHT22;62025;39.238;9.126;2023-04-15T00:16:20;16.20;60.40
63047;DHT22;62025;39.238;9.126;2023-04-15T00:18:46;16.20;60.50
63047;DHT22;62025;39.238;9.126;2023-04-15T00:21:12;16.20;60.60
63047;DHT22;62025;39.238;9.126;2023-04-15T00:23:38;16.20;60.80
63047;DHT22;62025;39.238;9.126;2023-04-15T00:26:05;16.20;61.00
63047;DHT22;62025;39.238;9.126;2023-04-15T00:28:32;16.20;61.20
63047;DHT22;62025;39.238;9.126;2023-04-15T00:30:58;16.20;60.90
63047;DHT22;62025;39.238;9.126;2023-04-15T00:33:24;16.20;61.20
63047;DHT22;62025;39.238;9.126;2023-04-15T00:35:50;16.10;61.80
63047;DHT22;62025;39.238;9.126;2023-04-15T00:38:16;16.20;62.00
63047;DHT22;62025;39.238;9.126;2023-04-15T00:40:43;16.20;62.40
63047;DHT22;62025;39.238;9.126;2023-04-15T00:43:09;16.10;62.80
63047;DHT22;62025;39.238;9.126;2023-04-15T00:45:35;16.20;62.90
63047;DHT22;62025;39.238;9.126;2023-04-15T00:48:02;16.20;62.70
63047;DHT22;62025;39.238;9.126;2023-04-15T00:50:28;16.10;63.20
63047;DHT22;62025;39.238;9.126;2023-04-15T00:52:54;16.20;63.40
63047;DHT22;62025;39.238;9.126;2023-04-15T00:55:20;16.20;63.60
63047;DHT22;62025;39.238;9.126;2023-04-15T00:57:47;16.20;63.60
63047;DHT22;62025;39.238;9.126;2023-04-15T01:00:13;16.20;63.80
63047;DHT22;62025;39.238;9.126;2023-04-15T01:02:39;16.10;64.10
63047;DHT22;62025;39.238;9.126;2023-04-15T01:05:05;16.10;64.30
63047;DHT22;62025;39.238;9.126;2023-04-15T01:07:33;16.10;64.50
63047;DHT22;62025;39.238;9.126;2023-04-15T01:09:59;16.10;65.00
63047;DHT22;62025;39.238;9.126;2023-04-15T01:12:25;16.10;64.70
63047;DHT22;62025;39.238;9.126;2023-04-15T01:14:55;16.20;64.70
63047;DHT22;62025;39.238;9.126;2023-04-15T01:17:23;16.20;64.40
63047;DHT22;62025;39.238;9.126;2023-04-15T01:19:50;16.10;64.70
63047;DHT22;62025;39.238;9.126;2023-04-15T01:22:17;16.10;64.60
63047;DHT22;62025;39.238;9.126;2023-04-15T01:24:59;16.10;64.60
63047;DHT22;62025;39.238;9.126;2023-04-15T01:27:29;16.10;64.70
63047;DHT22;62025;39.238;9.126;2023-04-15T01:29:56;16.00;64.80
63047;DHT22;62025;39.238;9.126;2023-04-15T01:32:22;16.10;64.50
63047;DHT22;62025;39.238;9.126;2023-04-15T01:34:50;16.10;64.50
63047;DHT22;62025;39.238;9.126;2023-04-15T01:37:16;16.00;64.60
63047;DHT22;62025;39.238;9.126;2023-04-15T01:39:42;16.00;65.00
63047;DHT22;62025;39.238;9.126;2023-04-15T01:42:09;16.00;64.90
63047;DHT22;62025;39.238;9.126;2023-04-15T01:44:35;16.00;65.00
63047;DHT22;62025;39.238;9.126;2023-04-15T01:47:02;16.00;64.90
63047;DHT22;62025;39.238;9.126;2023-04-15T01:49:27;16.00;65.00
63047;DHT22;62025;39.238;9.126;2023-04-15T01:51:53;16.00;65.10
63047;DHT22;62025;39.238;9.126;2023-04-15T01:54:20;16.00;64.90
63047;DHT22;62025;39.238;9.126;2023-04-15T01:56:46;16.10;65.20
63047;DHT22;62025;39.238;9.126;2023-04-15T01:59:12;16.00;65.20
63047;DHT22;62025;39.238;9.126;2023-04-15T02:01:38;16.00;65.30
63047;DHT22;62025;39.238;9.126;2023-04-15T02:04:05;16.00;65.30
63047;DHT22;62025;39.238;9.126;2023-04-15T02:06:32;16.00;65.80
63047;DHT22;62025;39.238;9.126;2023-04-15T02:08:58;15.90;66.10
63047;DHT22;62025;39.238;9.126;2023-04-15T02:11:24;16.00;65.60
63047;DHT22;62025;39.238;9.126;2023-04-15T02:13:52;16.00;65.80
63047;DHT22;62025;39.238;9.126;2023-04-15T02:16:18;15.80;66.90
63047;DHT22;62025;39.238;9.126;2023-04-15T02:18:45;15.80;66.60
63047;DHT22;62025;39.238;9.126;2023-04-15T02:21:11;15.90;66.40
63047;DHT22;62025;39.238;9.126;2023-04-15T02:23:38;15.90;66.50
63047;DHT22;62025;39.238;9.126;2023-04-15T02:26:04;15.80;66.60
63047;DHT22;62025;39.238;9.126;2023-04-15T02:28:30;15.90;66.40
63047;DHT22;62025;39.238;9.126;2023-04-15T02:30:56;15.90;66.20
63047;DHT22;62025;39.238;9.126;2023-04-15T02:33:24;15.90;66.60
63047;DHT22;62025;39.238;9.126;2023-04-15T02:35:50;15.80;66.70
63047;DHT22;62025;39.238;9.126;2023-04-15T02:38:17;15.80;66.50
63047;DHT22;62025;39.238;9.126;2023-04-15T02:40:43;15.90;66.40
63047;DHT22;62025;39.238;9.126;2023-04-15T02:43:09;15.90;66.50
63047;DHT22;62025;39.238;9.126;2023-04-15T02:45:37;15.80;67.10
63047;DHT22;62025;39.238;9.126;2023-04-15T02:48:04;15.80;67.10
63047;DHT22;62025;39.238;9.126;2023-04-15T02:50:31;15.90;67.00
63047;DHT22;62025;39.238;9.126;2023-04-15T02:52:57;15.90;66.80
63047;DHT22;62025;39.238;9.126;2023-04-15T02:55:23;15.90;66.90
63047;DHT22;62025;39.238;9.126;2023-04-15T02:57:49;15.90;67.10
63047;DHT22;62025;39.238;9.126;2023-04-15T03:00:15;15.90;67.10
63047;DHT22;62025;39.238;9.126;2023-04-15T03:02:45;15.90;67.40
63047;DHT22;62025;39.238;9.126;2023-04-15T03:05:12;15.90;67.30
63047;DHT22;62025;39.238;9.126;2023-04-15T03:07:45;15.80;67.40
63047;DHT22;62025;39.238;9.126;2023-04-15T03:10:11;15.90;67.60
63047;DHT22;62025;39.238;9.126;2023-04-15T03:12:37;15.90;67.60
63047;DHT22;62025;39.238;9.126;2023-04-15T03:15:03;15.80;68.00
63047;DHT22;62025;39.238;9.126;2023-04-15T03:17:36;15.80;68.10
63047;DHT22;62025;39.238;9.126;2023-04-15T03:20:04;15.80;68.10
63047;DHT22;62025;39.238;9.126;2023-04-15T03:22:31;15.80;68.40
63047;DHT22;62025;39.238;9.126;2023-04-15T03:24:58;15.80;68.30
63047;DHT22;62025;39.238;9.126;2023-04-15T03:27:24;15.90;68.60
63047;DHT22;62025;39.238;9.126;2023-04-15T03:29:53;15.90;68.70
63047;DHT22;62025;39.238;9.126;2023-04-15T03:32:23;15.90;68.60
63047;DHT22;62025;39.238;9.126;2023-04-15T03:34:49;15.90;68.80
63047;DHT22;62025;39.238;9.126;2023-04-15T03:37:15;15.90;68.80
63047;DHT22;62025;39.238;9.126;2023-04-15T03:39:41;15.90;69.40
63047;DHT22;62025;39.238;9.126;2023-04-15T03:42:07;15.90;69.60
63047;DHT22;62025;39.238;9.126;2023-04-15T03:44:33;15.90;70.00
63047;DHT22;62025;39.238;9.126;2023-04-15T03:46:59;16.00;70.10
63047;DHT22;62025;39.238;9.126;2023-04-15T03:49:25;16.00;70.80
63047;DHT22;62025;39.238;9.126;2023-04-15T03:51:51;15.90;71.20
63047;DHT22;62025;39.238;9.126;2023-04-15T03:54:17;16.00;71.40
63047;DHT22;62025;39.238;9.126;2023-04-15T03:56:43;16.00;72.00
63047;DHT22;62025;39.238;9.126;2023-04-15T03:59:09;16.00;72.50
63047;DHT22;62025;39.238;9.126;2023-04-15T04:01:35;16.00;72.60
63047;DHT22;62025;39.238;9.126;2023-04-15T04:04:01;15.90;73.20
63047;DHT22;62025;39.238;9.126;2023-04-15T04:06:27;15.90;73.50
63047;DHT22;62025;39.238;9.126;2023-04-15T04:08:53;15.90;73.70
63047;DHT22;62025;39.238;9.126;2023-04-15T04:11:20;15.90;73.80
63047;DHT22;62025;39.238;9.126;2023-04-15T04:13:46;15.80;73.50
63047;DHT22;62025;39.238;9.126;2023-04-15T04:16:12;15.80;73.50
63047;DHT22;62025;39.238;9.126;2023-04-15T04:18:38;15.80;73.60
63047;DHT22;62025;39.238;9.126;2023-04-15T04:21:04;15.80;74.20
63047;DHT22;62025;39.238;9.126;2023-04-15T04:23:30;15.80;73.60
63047;DHT22;62025;39.238;9.126;2023-04-15T04:25:56;15.80;73.80
63047;DHT22;62025;39.238;9.126;2023-04-15T04:28:22;15.70;74.10
63047;DHT22;62025;39.238;9.126;2023-04-15T04:30:48;15.70;73.90
63047;DHT22;62025;39.238;9.126;2023-04-15T04:33:15;15.70;73.60
63047;DHT22;62025;39.238;9.126;2023-04-15T04:35:41;15.60;73.40
63047;DHT22;62025;39.238;9.126;2023-04-15T04:38:07;15.60;73.30
63047;DHT22;62025;39.238;9.126;2023-04-15T04:40:33;15.50;73.80
63047;DHT22;62025;39.238;9.126;2023-04-15T04:42:59;15.60;73.70
63047;DHT22;62025;39.238;9.126;2023-04-15T04:45:25;15.50;74.20
63047;DHT22;62025;39.238;9.126;2023-04-15T04:47:51;15.50;74.20
63047;DHT22;62025;39.238;9.126;2023-04-15T04:50:17;15.50;74.20
63047;DHT22;62025;39.238;9.126;2023-04-15T04:52:43;15.50;73.90
63047;DHT22;62025;39.238;9.126;2023-04-15T04:55:09;15.50;73.80
63047;DHT22;62025;39.238;9.126;2023-04-15T04:57:36;15.40;73.70
63047;DHT22;62025;39.238;9.126;2023-04-15T05:00:05;15.30;73.30
63047;DHT22;62025;39.238;9.126;2023-04-15T05:02:33;15.20;73.10
63047;DHT22;62025;39.238;9.126;2023-04-15T05:04:59;15.30;72.80
63047;DHT22;62025;39.238;9.126;2023-04-15T05:07:26;15.30;72.80
63047;DHT22;62025;39.238;9.126;2023-04-15T05:09:52;15.30;73.20
63047;DHT22;62025;39.238;9.126;2023-04-15T05:12:18;15.40;73.40
63047;DHT22;62025;39.238;9.126;2023-04-15T05:14:44;15.30;73.80
63047;DHT22;62025;39.238;9.126;2023-04-15T05:17:11;15.30;73.60
63047;DHT22;62025;39.238;9.126;2023-04-15T05:19:37;15.30;73.10
63047;DHT22;62025;39.238;9.126;2023-04-15T05:22:03;15.30;72.90
63047;DHT22;62025;39.238;9.126;2023-04-15T05:24:29;15.30;72.60
63047;DHT22;62025;39.238;9.126;2023-04-15T05:26:55;15.30;72.70
63047;DHT22;62025;39.238;9.126;2023-04-15T05:29:21;15.30;72.40
63047;DHT22;62025;39.238;9.126;2023-04-15T05:31:47;15.30;72.90
63047;DHT22;62025;39.238;9.126;2023-04-15T05:34:13;15.30;73.00
63047;DHT22;62025;39.238;9.126;2023-04-15T05:36:41;15.40;73.60
63047;DHT22;62025;39.238;9.126;2023-04-15T05:39:07;15.40;73.40
63047;DHT22;62025;39.238;9.126;2023-04-15T05:41:33;15.30;73.50
63047;DHT22;62025;39.238;9.126;2023-04-15T05:43:59;15.30;73.10
63047;DHT22;62025;39.238;9.126;2023-04-15T05:46:26;15.40;73.10
63047;DHT22;62025;39.238;9.126;2023-04-15T05:48:52;15.50;73.10
63047;DHT22;62025;39.238;9.126;2023-04-15T05:51:18;15.40;73.20
63047;DHT22;62025;39.238;9.126;2023-04-15T05:53:44;15.40;73.20
63047;DHT22;62025;39.238;9.126;2023-04-15T05:56:10;15.40;73.30
63047;DHT22;62025;39.238;9.126;2023-04-15T05:58:36;15.40;73.30
63047;DHT22;62025;39.238;9.126;2023-04-15T06:01:03;15.30;73.40
63047;DHT22;62025;39.238;9.126;2023-04-15T06:03:28;15.30;73.20
63047;DHT22;62025;39.238;9.126;2023-04-15T06:05:55;15.30;73.30
63047;DHT22;62025;39.238;9.126;2023-04-15T06:08:20;15.30;73.40
63047;DHT22;62025;39.238;9.126;2023-04-15T06:10:47;15.30;73.20
63047;DHT22;62025;39.238;9.126;2023-04-15T06:13:13;15.30;73.10
63047;DHT22;62025;39.238;9.126;2023-04-15T06:15:39;15.30;73.50
63047;DHT22;62025;39.238;9.126;2023-04-15T06:18:05;15.30;73.30
63047;DHT22;62025;39.238;9.126;2023-04-15T06:20:31;15.30;73.10
63047;DHT22;62025;39.238;9.126;2023-04-15T06:22:57;15.40;73.10
63047;DHT22;62025;39.238;9.126;2023-04-15T06:25:23;15.40;73.20
63047;DHT22;62025;39.238;9.126;2023-04-15T06:27:49;15.40;73.50
63047;DHT22;62025;39.238;9.126;2023-04-15T06:30:15;15.40;73.50
63047;DHT22;62025;39.238;9.126;2023-04-15T06:32:41;15.40;73.60
63047;DHT22;62025;39.238;9.126;2023-04-15T06:35:08;15.40;73.40
63047;DHT22;62025;39.238;9.126;2023-04-15T06:37:34;15.30;73.10
63047;DHT22;62025;39.238;9.126;2023-04-15T06:40:01;15.40;73.20
63047;DHT22;62025;39.238;9.126;2023-04-15T06:42:27;15.50;73.20
63047;DHT22;62025;39.238;9.126;2023-04-15T06:44:53;15.60;72.70
63047;DHT22;62025;39.238;9.126;2023-04-15T06:47:19;15.70;72.50
63047;DHT22;62025;39.238;9.126;2023-04-15T06:49:45;15.80;72.60
63047;DHT22;62025;39.238;9.126;2023-04-15T06:52:11;15.80;72.50
63047;DHT22;62025;39.238;9.126;2023-04-15T06:54:37;15.90;72.20
63047;DHT22;62025;39.238;9.126;2023-04-15T06:57:04;16.00;72.50
63047;DHT22;62025;39.238;9.126;2023-04-15T06:59:31;16.30;71.90
63047;DHT22;62025;39.238;9.126;2023-04-15T07:01:57;16.50;71.20
63047;DHT22;62025;39.238;9.126;2023-04-15T07:04:23;16.70;70.30
63047;DHT22;62025;39.238;9.126;2023-04-15T07:06:50;16.80;69.50
63047;DHT22;62025;39.238;9.126;2023-04-15T07:09:16;17.00;69.00
63047;DHT22;62025;39.238;9.126;2023-04-15T07:11:42;17.10;68.40
63047;DHT22;62025;39.238;9.126;2023-04-15T07:14:08;17.20;68.60
63047;DHT22;62025;39.238;9.126;2023-04-15T07:16:33;17.30;67.60
63047;DHT22;62025;39.238;9.126;2023-04-15T07:19:00;17.40;67.20
63047;DHT22;62025;39.238;9.126;2023-04-15T07:21:26;17.50;66.60
63047;DHT22;62025;39.238;9.126;2023-04-15T07:23:52;17.70;66.10
63047;DHT22;62025;39.238;9.126;2023-04-15T07:26:18;17.80;65.90
63047;DHT22;62025;39.238;9.126;2023-04-15T07:28:44;17.90;65.70
63047;DHT22;62025;39.238;9.126;2023-04-15T07:31:11;17.90;65.10
63047;DHT22;62025;39.238;9.126;2023-04-15T07:33:38;18.10;64.60
63047;DHT22;62025;39.238;9.126;2023-04-15T07:36:04;18.30;64.30
63047;DHT22;62025;39.238;9.126;2023-04-15T07:38:30;18.30;63.30
63047;DHT22;62025;39.238;9.126;2023-04-15T07:40:56;18.40;63.10
63047;DHT22;62025;39.238;9.126;2023-04-15T07:43:22;18.50;62.50
63047;DHT22;62025;39.238;9.126;2023-04-15T07:45:48;18.60;62.40
63047;DHT22;62025;39.238;9.126;2023-04-15T07:48:14;18.80;62.20
63047;DHT22;62025;39.238;9.126;2023-04-15T07:50:41;18.80;61.50
63047;DHT22;62025;39.238;9.126;2023-04-15T07:53:07;18.90;61.70
63047;DHT22;62025;39.238;9.126;2023-04-15T07:55:33;18.90;61.50
63047;DHT22;62025;39.238;9.126;2023-04-15T07:57:59;19.10;61.50
63047;DHT22;62025;39.238;9.126;2023-04-15T08:00:25;19.30;61.40
63047;DHT22;62025;39.238;9.126;2023-04-15T08:02:52;19.30;60.70
63047;DHT22;62025;39.238;9.126;2023-04-15T08:05:18;19.40;61.00
63047;DHT22;62025;39.238;9.126;2023-04-15T08:07:45;19.50;60.70
63047;DHT22;62025;39.238;9.126;2023-04-15T08:10:11;19.70;60.00
63047;DHT22;62025;39.238;9.126;2023-04-15T08:12:37;19.80;59.50
63047;DHT22;62025;39.238;9.126;2023-04-15T08:15:03;19.80;58.60
63047;DHT22;62025;39.238;9.126;2023-04-15T08:17:30;19.80;58.10
63047;DHT22;62025;39.238;9.126;2023-04-15T08:19:56;19.90;58.40
63047;DHT22;62025;39.238;9.126;2023-04-15T08:22:22;20.00;58.10
63047;DHT22;62025;39.238;9.126;2023-04-15T08:24:48;20.10;57.80
63047;DHT22;62025;39.238;9.126;2023-04-15T08:27:14;19.80;58.00
63047;DHT22;62025;39.238;9.126;2023-04-15T08:29:40;19.60;59.10
63047;DHT22;62025;39.238;9.126;2023-04-15T08:32:06;19.50;57.70
63047;DHT22;62025;39.238;9.126;2023-04-15T08:34:34;19.50;57.30
63047;DHT22;62025;39.238;9.126;2023-04-15T08:37:00;19.60;57.00
63047;DHT22;62025;39.238;9.126;2023-04-15T08:39:26;19.40;56.90
63047;DHT22;62025;39.238;9.126;2023-04-15T08:42:00;19.40;57.00
63047;DHT22;62025;39.238;9.126;2023-04-15T08:44:33;19.80;55.10
63047;DHT22;62025;39.238;9.126;2023-04-15T08:47:00;19.80;54.20
63047;DHT22;62025;39.238;9.126;2023-04-15T08:49:31;19.80;54.40
63047;DHT22;62025;39.238;9.126;2023-04-15T08:51:58;19.90;54.50
63047;DHT22;62025;39.238;9.126;2023-04-15T08:54:25;20.00;54.30
63047;DHT22;62025;39.238;9.126;2023-04-15T08:56:52;20.30;53.00
63047;DHT22;62025;39.238;9.126;2023-04-15T08:59:20;20.60;52.20
63047;DHT22;62025;39.238;9.126;2023-04-15T09:01:48;21.00;51.30
63047;DHT22;62025;39.238;9.126;2023-04-15T09:04:16;21.10;50.90
63047;DHT22;62025;39.238;9.126;2023-04-15T09:06:42;20.60;51.70
63047;DHT22;62025;39.238;9.126;2023-04-15T09:09:08;20.20;53.10
63047;DHT22;62025;39.238;9.126;2023-04-15T09:11:34;20.20;53.30
63047;DHT22;62025;39.238;9.126;2023-04-15T09:14:01;20.20;53.20
63047;DHT22;62025;39.238;9.126;2023-04-15T09:16:27;19.90;53.50
63047;DHT22;62025;39.238;9.126;2023-04-15T09:18:53;19.90;53.80
63047;DHT22;62025;39.238;9.126;2023-04-15T09:21:19;20.10;53.50
63047;DHT22;62025;39.238;9.126;2023-04-15T09:23:57;20.00;53.60
63047;DHT22;62025;39.238;9.126;2023-04-15T09:26:35;20.00;53.40
63047;DHT22;62025;39.238;9.126;2023-04-15T09:29:07;19.90;53.70
63047;DHT22;62025;39.238;9.126;2023-04-15T09:31:35;19.80;53.00
63047;DHT22;62025;39.238;9.126;2023-04-15T09:34:02;20.20;52.60
63047;DHT22;62025;39.238;9.126;2023-04-15T09:36:28;20.10;52.90
63047;DHT22;62025;39.238;9.126;2023-04-15T09:38:59;19.90;52.90
63047;DHT22;62025;39.238;9.126;2023-04-15T09:41:26;19.90;53.20
63047;DHT22;62025;39.238;9.126;2023-04-15T09:43:53;20.00;52.90
63047;DHT22;62025;39.238;9.126;2023-04-15T09:46:19;20.20;52.90
63047;DHT22;62025;39.238;9.126;2023-04-15T09:48:45;20.00;53.00
63047;DHT22;62025;39.238;9.126;2023-04-15T09:51:11;20.10;52.60
63047;DHT22;62025;39.238;9.126;2023-04-15T09:53:37;20.30;52.50
63047;DHT22;62025;39.238;9.126;2023-04-15T09:56:03;20.50;51.60
63047;DHT22;62025;39.238;9.126;2023-04-15T09:58:33;20.80;48.50
63047;DHT22;62025;39.238;9.126;2023-04-15T10:01:03;21.00;47.60
63047;DHT22;62025;39.238;9.126;2023-04-15T10:03:34;21.10;47.10
63047;DHT22;62025;39.238;9.126;2023-04-15T10:06:03;21.20;45.90
63047;DHT22;62025;39.238;9.126;2023-04-15T10:08:33;21.10;45.70
63047;DHT22;62025;39.238;9.126;2023-04-15T10:11:01;21.20;46.00
63047;DHT22;62025;39.238;9.126;2023-04-15T10:13:30;21.20;45.70
63047;DHT22;62025;39.238;9.126;2023-04-15T10:16:06;21.20;45.30
63047;DHT22;62025;39.238;9.126;2023-04-15T10:18:42;21.20;46.60
63047;DHT22;62025;39.238;9.126;2023-04-15T10:21:10;21.00;46.20
63047;DHT22;62025;39.238;9.126;2023-04-15T10:23:39;20.90;45.90
63047;DHT22;62025;39.238;9.126;2023-04-15T10:26:06;20.90;46.10
63047;DHT22;62025;39.238;9.126;2023-04-15T10:28:32;20.90;46.60
63047;DHT22;62025;39.238;9.126;2023-04-15T10:30:59;20.90;46.70
63047;DHT22;62025;39.238;9.126;2023-04-15T10:33:26;20.90;46.60
63047;DHT22;62025;39.238;9.126;2023-04-15T10:35:55;20.90;46.80
63047;DHT22;62025;39.238;9.126;2023-04-15T10:38:40;20.80;46.60
63047;DHT22;62025;39.238;9.126;2023-04-15T10:41:21;20.80;45.90
63047;DHT22;62025;39.238;9.126;2023-04-15T10:43:55;20.80;46.80
63047;DHT22;62025;39.238;9.126;2023-04-15T10:46:42;20.90;46.30
63047;DHT22;62025;39.238;9.126;2023-04-15T10:49:14;20.80;45.90
63047;DHT22;62025;39.238;9.126;2023-04-15T10:51:45;20.70;46.10
63047;DHT22;62025;39.238;9.126;2023-04-15T10:54:16;20.70;46.60
63047;DHT22;62025;39.238;9.126;2023-04-15T10:59:38;20.50;46.50
63047;DHT22;62025;39.238;9.126;2023-04-15T11:03:06;20.50;46.70
63047;DHT22;62025;39.238;9.126;2023-04-15T11:05:52;20.40;44.50
63047;DHT22;62025;39.238;9.126;2023-04-15T11:08:19;20.40;44.70
63047;DHT22;62025;39.238;9.126;2023-04-15T11:13:19;20.40;45.00
63047;DHT22;62025;39.238;9.126;2023-04-15T11:15:55;20.40;45.80
63047;DHT22;62025;39.238;9.126;2023-04-15T11:18:25;20.30;45.70
63047;DHT22;62025;39.238;9.126;2023-04-15T11:20:56;20.20;46.90
63047;DHT22;62025;39.238;9.126;2023-04-15T11:23:27;20.20;46.60
63047;DHT22;62025;39.238;9.126;2023-04-15T11:25:59;20.10;46.80
63047;DHT22;62025;39.238;9.126;2023-04-15T11:28:30;19.90;46.80
63047;DHT22;62025;39.238;9.126;2023-04-15T11:30:58;20.00;46.70
63047;DHT22;62025;39.238;9.126;2023-04-15T11:33:30;19.90;46.60
63047;DHT22;62025;39.238;9.126;2023-04-15T11:35:56;19.90;46.80
63047;DHT22;62025;39.238;9.126;2023-04-15T11:38:23;19.90;47.50
63047;DHT22;62025;39.238;9.126;2023-04-15T11:40:50;19.90;47.20
63047;DHT22;62025;39.238;9.126;2023-04-15T11:43:21;19.90;47.20
63047;DHT22;62025;39.238;9.126;2023-04-15T11:45:55;19.90;46.00
63047;DHT22;62025;39.238;9.126;2023-04-15T11:48:25;19.90;45.90
63047;DHT22;62025;39.238;9.126;2023-04-15T11:51:11;19.90;46.50
63047;DHT22;62025;39.238;9.126;2023-04-15T11:53:44;19.90;47.60
63047;DHT22;62025;39.238;9.126;2023-04-15T11:56:22;19.90;47.40
63047;DHT22;62025;39.238;9.126;2023-04-15T11:58:54;19.90;48.30
63047;DHT22;62025;39.238;9.126;2023-04-15T12:01:42;19.80;48.50
63047;DHT22;62025;39.238;9.126;2023-04-15T12:04:17;19.80;48.90
63047;DHT22;62025;39.238;9.126;2023-04-15T12:06:45;19.90;48.50
63047;DHT22;62025;39.238;9.126;2023-04-15T12:09:11;19.70;47.60
63047;DHT22;62025;39.238;9.126;2023-04-15T12:16:40;19.50;46.40
63047;DHT22;62025;39.238;9.126;2023-04-15T12:19:10;19.50;46.10
63047;DHT22;62025;39.238;9.126;2023-04-15T12:21:43;19.50;46.90
63047;DHT22;62025;39.238;9.126;2023-04-15T12:24:11;19.50;46.40
63047;DHT22;62025;39.238;9.126;2023-04-15T12:27:00;19.50;47.00
63047;DHT22;62025;39.238;9.126;2023-04-15T12:29:32;19.60;47.20
63047;DHT22;62025;39.238;9.126;2023-04-15T12:32:04;19.60;47.70
63047;DHT22;62025;39.238;9.126;2023-04-15T12:34:37;19.60;46.60
63047;DHT22;62025;39.238;9.126;2023-04-15T12:37:13;19.50;45.80
63047;DHT22;62025;39.238;9.126;2023-04-15T12:39:42;19.50;45.10
63047;DHT22;62025;39.238;9.126;2023-04-15T12:42:09;19.40;45.50
63047;DHT22;62025;39.238;9.126;2023-04-15T12:44:37;19.40;46.40
63047;DHT22;62025;39.238;9.126;2023-04-15T12:47:04;19.40;45.80
63047;DHT22;62025;39.238;9.126;2023-04-15T12:49:31;19.50;45.60
63047;DHT22;62025;39.238;9.126;2023-04-15T12:51:59;19.50;46.20
63047;DHT22;62025;39.238;9.126;2023-04-15T12:54:26;19.60;46.30
63047;DHT22;62025;39.238;9.126;2023-04-15T12:56:53;19.60;46.70
63047;DHT22;62025;39.238;9.126;2023-04-15T12:59:20;19.60;46.20
63047;DHT22;62025;39.238;9.126;2023-04-15T13:01:47;19.50;46.30
63047;DHT22;62025;39.238;9.126;2023-04-15T13:04:14;19.50;46.30
63047;DHT22;62025;39.238;9.126;2023-04-15T13:06:41;19.40;45.50
63047;DHT22;62025;39.238;9.126;2023-04-15T13:09:08;19.40;45.50
63047;DHT22;62025;39.238;9.126;2023-04-15T13:11:34;19.40;44.50
63047;DHT22;62025;39.238;9.126;2023-04-15T13:14:02;19.40;44.90
63047;DHT22;62025;39.238;9.126;2023-04-15T13:16:30;19.50;45.60
63047;DHT22;62025;39.238;9.126;2023-04-15T13:18:58;19.50;45.80
63047;DHT22;62025;39.238;9.126;2023-04-15T13:21:24;19.50;45.40
63047;DHT22;62025;39.238;9.126;2023-04-15T13:23:52;19.50;45.80
63047;DHT22;62025;39.238;9.126;2023-04-15T13:26:18;19.50;45.20
63047;DHT22;62025;39.238;9.126;2023-04-15T13:28:44;19.60;45.80
63047;DHT22;62025;39.238;9.126;2023-04-15T13:31:11;19.60;45.50
63047;DHT22;62025;39.238;9.126;2023-04-15T13:33:37;19.60;45.10
63047;DHT22;62025;39.238;9.126;2023-04-15T13:36:03;19.70;44.60
63047;DHT22;62025;39.238;9.126;2023-04-15T13:38:29;19.60;44.60
63047;DHT22;62025;39.238;9.126;2023-04-15T13:40:55;19.70;43.70
63047;DHT22;62025;39.238;9.126;2023-04-15T13:43:21;19.70;43.90
63047;DHT22;62025;39.238;9.126;2023-04-15T13:45:48;19.70;43.80
63047;DHT22;62025;39.238;9.126;2023-04-15T13:48:14;19.70;43.80
63047;DHT22;62025;39.238;9.126;2023-04-15T13:50:40;19.60;44.10
63047;DHT22;62025;39.238;9.126;2023-04-15T13:53:10;19.60;44.00
63047;DHT22;62025;39.238;9.126;2023-04-15T13:55:37;19.70;44.10
63047;DHT22;62025;39.238;9.126;2023-04-15T13:58:06;19.60;44.10
63047;DHT22;62025;39.238;9.126;2023-04-15T14:00:33;19.60;44.70
63047;DHT22;62025;39.238;9.126;2023-04-15T14:02:59;19.60;44.90
63047;DHT22;62025;39.238;9.126;2023-04-15T14:05:25;19.60;44.60
63047;DHT22;62025;39.238;9.126;2023-04-15T14:07:51;19.60;44.90
63047;DHT22;62025;39.238;9.126;2023-04-15T14:10:17;19.50;45.40
63047;DHT22;62025;39.238;9.126;2023-04-15T14:12:43;19.40;45.50
63047;DHT22;62025;39.238;9.126;2023-04-15T14:15:09;19.40;46.10
63047;DHT22;62025;39.238;9.126;2023-04-15T14:17:35;19.40;46.40
63047;DHT22;62025;39.238;9.126;2023-04-15T14:20:02;19.40;46.30
63047;DHT22;62025;39.238;9.126;2023-04-15T14:22:28;19.40;46.60
63047;DHT22;62025;39.238;9.126;2023-04-15T14:24:54;19.40;47.10
63047;DHT22;62025;39.238;9.126;2023-04-15T14:27:20;19.40;47.40
63047;DHT22;62025;39.238;9.126;2023-04-15T14:29:46;19.40;47.70
63047;DHT22;62025;39.238;9.126;2023-04-15T14:32:12;19.40;48.00
63047;DHT22;62025;39.238;9.126;2023-04-15T14:34:39;19.40;48.10
63047;DHT22;62025;39.238;9.126;2023-04-15T14:37:05;19.40;48.10
63047;DHT22;62025;39.238;9.126;2023-04-15T14:39:31;19.40;48.20
63047;DHT22;62025;39.238;9.126;2023-04-15T14:41:57;19.40;48.50
63047;DHT22;62025;39.238;9.126;2023-04-15T14:44:23;19.40;48.70
63047;DHT22;62025;39.238;9.126;2023-04-15T14:46:50;19.40;49.10
63047;DHT22;62025;39.238;9.126;2023-04-15T14:49:16;19.40;48.90
63047;DHT22;62025;39.238;9.126;2023-04-15T14:51:42;19.30;49.20
63047;DHT22;62025;39.238;9.126;2023-04-15T14:54:08;19.40;48.70
63047;DHT22;62025;39.238;9.126;2023-04-15T14:56:34;19.40;48.50
63047;DHT22;62025;39.238;9.126;2023-04-15T14:59:00;19.30;48.10
63047;DHT22;62025;39.238;9.126;2023-04-15T15:01:27;19.20;47.30
63047;DHT22;62025;39.238;9.126;2023-04-15T15:03:53;19.20;47.50
63047;DHT22;62025;39.238;9.126;2023-04-15T15:06:20;19.10;47.30
63047;DHT22;62025;39.238;9.126;2023-04-15T15:08:48;19.20;47.00
63047;DHT22;62025;39.238;9.126;2023-04-15T15:11:15;19.20;46.80
63047;DHT22;62025;39.238;9.126;2023-04-15T15:13:41;19.20;46.20
63047;DHT22;62025;39.238;9.126;2023-04-15T15:16:07;19.10;46.60
63047;DHT22;62025;39.238;9.126;2023-04-15T15:18:34;19.10;46.70
63047;DHT22;62025;39.238;9.126;2023-04-15T15:21:00;19.10;46.60
63047;DHT22;62025;39.238;9.126;2023-04-15T15:23:27;19.10;46.90
63047;DHT22;62025;39.238;9.126;2023-04-15T15:25:53;19.00;47.10
63047;DHT22;62025;39.238;9.126;2023-04-15T15:28:19;19.00;47.30
63047;DHT22;62025;39.238;9.126;2023-04-15T15:30:46;19.10;47.40
63047;DHT22;62025;39.238;9.126;2023-04-15T15:33:13;18.90;47.50
63047;DHT22;62025;39.238;9.126;2023-04-15T15:35:39;18.70;48.70
63047;DHT22;62025;39.238;9.126;2023-04-15T15:38:05;18.50;49.30
63047;DHT22;62025;39.238;9.126;2023-04-15T15:40:31;18.40;49.70
63047;DHT22;62025;39.238;9.126;2023-04-15T15:42:57;18.40;49.90